Elm City, North Carolina
Current Conditions -  °F | °C
As of 3:53 AM on Sunday 21 Dec 2014 (Local Time) from KRWI Reporting Station
Clear Clear  
Wind Chill: 33°   Ceiling: Unl
Heat Index: 33°   Visibility: 8mi
Dew Point: 31°   Wind: 3mph
Humidity: 92%   Direction: 30°NNE
Pressure: 30.28"   Gusts: NA
Location:  35.81°N, 77.86°W
Report Text: KRWI 210853Z AUTO 03003KT 8SM CLR 01/M01 A3028 RMK AO2 SLP255 T00061006 50001
Loading
Personal Weather Stations






























Interactive Weather Map New forecast layout! Learn more

10-Day Weather Forecast

Advertisements
Track Severe Weather on mobile